Jamestown Regional Airport Jamestown US
ICAO: KJMS
IATA: JMS
Category: Medium
Scheduled Services: Yes

Elevation: 1500 ft
TransAlt. 18000 ft.

Airport Communications:
ASOS:118.425
MINNEAPOLIS CNTR:124.2
GRAND FORKS RDO:122.2
CTAF/UNICOM:123

KJMS Zoom In..

Runways:

(A) RW 04 length 5750 ft width 75 ft
---- / hdg 37

(B) RW 13 length 6502 ft width 100 ft
---- / hdg 127

(C) RW 22 length 5750 ft width 75 ft
---- / hdg 217

(D) RW 31 length 6502 ft width 100 ft
ILS 109.30 / hdg 307

Location; KJMS
Day. 09 / Time. 22.56 Zulu
* Altimeter: 29.89
* Temperature: 24° c. 75.2°f.
* Wind from: 320° Speed 14 kn.
Dewpoint: 14° c.
Visibility: 10 Statute Miles.
Clouds: Scattered 4700 ft.

KJMS 092256Z AUTO 32014KT 10SM SCT047 24/14 A2989 RMK AO2 SLP116 T02390139

Going to: --> -->


Wind From 320°
Speed 14 kn.

 
 
jpsmedia worldairports.se 2020   terms of use